createdAt,value
2022-11-16T00:01:30.366Z,99019.47
2022-11-16T00:06:51.703Z,99006.63
2022-11-16T00:12:13.419Z,98995.47
2022-11-16T00:17:34.654Z,98997.16
2022-11-16T00:22:56.122Z,98974.03
2022-11-16T00:28:17.757Z,98971.41
2022-11-16T00:33:39.906Z,98959.47
2022-11-16T00:39:01.151Z,98950.03
2022-11-16T00:44:22.963Z,98938.03
2022-11-16T00:49:44.569Z,98935.41
2022-11-16T00:55:06.805Z,98925.97
2022-11-16T01:00:28.347Z,98930.19
2022-11-16T01:05:50.229Z,98919.88
2022-11-16T01:11:52.793Z,98906.09
2022-11-16T01:17:15.575Z,98908.66
2022-11-16T01:22:38.552Z,98898.38
2022-11-16T01:28:00.059Z,98896.75
2022-11-16T01:33:33.411Z,98884.81
2022-11-16T01:38:54.927Z,98872.00
2022-11-16T01:44:32.136Z,98866.91
2022-11-16T01:50:13.559Z,98857.50
2022-11-16T01:55:38.638Z,98860.13
2022-11-16T02:01:08.453Z,98855.78
2022-11-16T02:07:14.945Z,98862.63
2022-11-16T02:13:02.885Z,98851.47
2022-11-16T02:18:50.567Z,98854.06
2022-11-16T02:24:41.480Z,98846.25
2022-11-16T02:30:05.249Z,98843.66
2022-11-16T02:35:30.249Z,98835.97
2022-11-16T02:41:00.999Z,98824.75
2022-11-16T02:46:29.588Z,98831.50
2022-11-16T02:51:53.116Z,98824.59
2022-11-16T02:57:38.702Z,98819.53
2022-11-16T03:03:12.121Z,98818.69
2022-11-16T03:08:36.334Z,98807.63
2022-11-16T03:14:04.036Z,98815.34
2022-11-16T03:19:35.141Z,98805.16
2022-11-16T03:24:56.846Z,98801.69
2022-11-16T03:30:23.567Z,98815.34
2022-11-16T03:36:04.067Z,98810.16
2022-11-16T03:41:30.135Z,98804.06
2022-11-16T03:46:51.845Z,98792.09
2022-11-16T03:52:15.798Z,98789.53
2022-11-16T03:57:37.879Z,98791.16
2022-11-16T04:02:59.336Z,98793.75
2022-11-16T04:08:39.413Z,98786.88
2022-11-16T04:14:20.339Z,98781.72
2022-11-16T04:20:20.205Z,98778.19
2022-11-16T04:25:43.969Z,98784.03
2022-11-16T04:31:32.194Z,98780.56
2022-11-16T04:37:19.236Z,98783.94
2022-11-16T04:42:42.671Z,98782.13
2022-11-16T04:48:04.891Z,98782.13
2022-11-16T04:53:28.560Z,98786.28
2022-11-16T04:59:00.037Z,98781.00
2022-11-16T05:04:22.401Z,98784.47
2022-11-16T05:09:46.763Z,98777.63
2022-11-16T05:15:09.524Z,98778.41
2022-11-16T05:20:49.478Z,98762.00
2022-11-16T05:26:11.123Z,98762.81
2022-11-16T05:31:39.095Z,98767.97
2022-11-16T05:37:03.346Z,98775.69
2022-11-16T05:42:25.506Z,98779.06
2022-11-16T05:47:47.823Z,98766.03
2022-11-16T05:53:10.734Z,98778.03
2022-11-16T05:58:33.779Z,98773.47
2022-11-16T06:03:56.201Z,98771.69
2022-11-16T06:09:18.196Z,98775.81
2022-11-16T06:14:40.482Z,98770.81
2022-11-16T06:20:02.849Z,98768.94
2022-11-16T06:25:24.827Z,98760.03
2022-11-16T06:30:47.802Z,98755.66
2022-11-16T06:36:09.391Z,98759.88
2022-11-16T06:41:32.999Z,98772.81
2022-11-16T06:46:54.956Z,98772.72
2022-11-16T06:52:17.436Z,98770.53
2022-11-16T06:57:39.205Z,98779.31
2022-11-16T07:03:03.655Z,98782.41
2022-11-16T07:08:27.962Z,98775.22
2022-11-16T07:13:51.067Z,98772.78
2022-11-16T07:19:13.036Z,98770.06
2022-11-16T07:24:35.802Z,98768.69
2022-11-16T07:29:57.894Z,98766.75
2022-11-16T07:35:40.195Z,98764.09
2022-11-16T07:41:03.152Z,98772.38
2022-11-16T07:46:46.135Z,98773.06
2022-11-16T07:52:12.063Z,98776.31
2022-11-16T07:57:54.238Z,98780.66
2022-11-16T08:03:21.790Z,98779.88
2022-11-16T08:08:46.532Z,98788.53
2022-11-16T08:14:09.044Z,98785.28
2022-11-16T08:19:30.942Z,98778.31
2022-11-16T08:24:53.290Z,98783.44
2022-11-16T08:30:14.844Z,98771.84
2022-11-16T08:35:38.511Z,98780.41
2022-11-16T08:41:00.406Z,98775.59
2022-11-16T08:46:23.169Z,98780.38
2022-11-16T08:57:37.093Z,98780.41
2022-11-16T09:03:03.609Z,98779.22
2022-11-16T09:08:25.009Z,98779.44
2022-11-16T09:13:47.757Z,98774.59
2022-11-16T09:19:08.908Z,98780.03
2022-11-16T09:24:30.406Z,98778.28
2022-11-16T09:29:51.945Z,98776.88
2022-11-16T09:35:13.477Z,98762.44
2022-11-16T09:46:29.888Z,98764.91
2022-11-16T09:52:01.079Z,98764.13
2022-11-16T09:57:29.440Z,98771.56
2022-11-16T10:03:01.497Z,98778.94
2022-11-16T10:09:00.337Z,98761.41
2022-11-16T10:14:47.261Z,98767.13
2022-11-16T10:20:30.623Z,98766.78
2022-11-16T10:26:20.476Z,98766.22
2022-11-16T10:31:56.905Z,98770.28
2022-11-16T10:37:18.376Z,98773.97
2022-11-16T10:42:39.958Z,98772.66
2022-11-16T10:48:14.706Z,98768.41
2022-11-16T10:53:41.937Z,98769.19
2022-11-16T10:59:05.969Z,98766.78
2022-11-16T11:04:32.761Z,98773.22
2022-11-16T11:09:55.006Z,98766.41
2022-11-16T11:15:26.304Z,98776.41
2022-11-16T11:20:51.558Z,98773.47
2022-11-16T11:26:33.112Z,98771.31
2022-11-16T11:32:16.883Z,98778.78
2022-11-16T11:37:41.096Z,98791.88
2022-11-16T11:43:06.201Z,98788.47
2022-11-16T11:48:49.935Z,98792.56
2022-11-16T11:54:25.247Z,98791.84
2022-11-16T11:59:47.403Z,98803.97
2022-11-16T12:05:45.896Z,98808.34
2022-11-16T12:11:32.793Z,98802.41
2022-11-16T12:17:03.440Z,98811.16
2022-11-16T12:22:53.328Z,98812.03
2022-11-16T12:28:39.633Z,98811.41
2022-11-16T12:34:44.385Z,98807.03
2022-11-16T12:40:35.077Z,98818.19
2022-11-16T12:46:05.309Z,98810.34
2022-11-16T12:51:44.922Z,98821.44
2022-11-16T12:57:12.209Z,98830.06
2022-11-16T13:02:39.557Z,98835.25
2022-11-16T13:08:16.183Z,98852.63
2022-11-16T13:13:39.402Z,98841.75
2022-11-16T13:19:02.839Z,98846.78
2022-11-16T13:24:44.138Z,98839.09
2022-11-16T13:30:14.883Z,98834.16
2022-11-16T13:35:38.280Z,98841.09
2022-11-16T13:41:41.292Z,98830.00
2022-11-16T13:47:30.692Z,98851.41
2022-11-16T13:58:49.716Z,98862.44
2022-11-16T14:04:40.292Z,98855.69
2022-11-16T14:10:05.835Z,98858.44
2022-11-16T14:15:28.833Z,98860.97
2022-11-16T14:21:09.222Z,98861.06
2022-11-16T14:26:56.544Z,98873.09
2022-11-16T14:32:37.009Z,98867.03
2022-11-16T14:38:26.797Z,98873.00
2022-11-16T14:43:53.445Z,98875.59
2022-11-16T14:49:17.303Z,98872.94
2022-11-16T14:54:50.451Z,98885.81
2022-11-16T15:00:25.082Z,98871.22
2022-11-16T15:05:47.030Z,98870.41
2022-11-16T15:11:20.936Z,98884.16
2022-11-16T15:16:50.253Z,98881.59
2022-11-16T15:22:18.598Z,98893.59
2022-11-16T15:27:43.557Z,98887.66
2022-11-16T15:33:36.949Z,98887.66
2022-11-16T15:39:01.220Z,98891.94
2022-11-16T15:44:23.934Z,98892.81
2022-11-16T15:49:49.927Z,98891.09
2022-11-16T15:55:38.858Z,98887.72
2022-11-16T16:01:00.758Z,98886.00
2022-11-16T16:06:45.656Z,98884.31
2022-11-16T16:12:19.901Z,98885.13
2022-11-16T16:17:46.877Z,98882.56
2022-11-16T16:23:15.360Z,98887.72
2022-11-16T16:28:37.556Z,98890.28
2022-11-16T16:33:59.739Z,98896.28
2022-11-16T16:39:21.602Z,98880.03
2022-11-16T16:44:44.266Z,98877.50
2022-11-16T16:50:06.295Z,98883.47
2022-11-16T16:55:28.941Z,98881.75
2022-11-16T17:00:51.172Z,98880.03
2022-11-16T17:06:13.039Z,98875.78
2022-11-16T17:11:34.760Z,98878.34
2022-11-16T17:16:56.293Z,98880.06
2022-11-16T17:22:19.363Z,98878.34
2022-11-16T17:27:40.924Z,98876.63
2022-11-16T17:33:02.836Z,98880.91
2022-11-16T17:38:24.488Z,98874.06
2022-11-16T17:43:47.755Z,98876.63
2022-11-16T17:49:09.357Z,98873.19
2022-11-16T17:54:31.157Z,98876.63
2022-11-16T17:59:52.605Z,98874.91
2022-11-16T18:05:14.317Z,98875.78
2022-11-16T18:10:39.343Z,98880.03
2022-11-16T18:16:10.182Z,98874.91
2022-11-16T18:21:33.964Z,98886.88
2022-11-16T18:26:56.073Z,98891.16
2022-11-16T18:32:17.605Z,98891.16
2022-11-16T18:37:38.848Z,98886.03
2022-11-16T18:43:00.351Z,98892.88
2022-11-16T18:48:21.813Z,98893.72
2022-11-16T18:53:43.717Z,98886.03
2022-11-16T18:59:05.421Z,98882.59
2022-11-16T19:04:28.660Z,98897.16
2022-11-16T19:09:49.981Z,98895.44
2022-11-16T19:15:11.681Z,98894.59
2022-11-16T19:20:33.744Z,98891.19
2022-11-16T19:26:04.962Z,98892.88
2022-11-16T19:31:29.038Z,98896.31
2022-11-16T19:36:50.546Z,98903.13
2022-11-16T19:42:12.022Z,98892.84
2022-11-16T19:47:33.900Z,98883.47
2022-11-16T19:52:56.180Z,98882.59
2022-11-16T19:58:17.419Z,98886.03
2022-11-16T20:03:40.629Z,98888.59
2022-11-16T20:09:08.862Z,98874.91
2022-11-16T20:14:30.188Z,98875.78
2022-11-16T20:19:51.716Z,98874.06
2022-11-16T20:25:13.809Z,98873.19
2022-11-16T20:30:35.193Z,98884.28
2022-11-16T20:36:01.881Z,98883.41
2022-11-16T20:41:27.183Z,98883.41
2022-11-16T20:46:49.230Z,98874.88
2022-11-16T20:52:10.579Z,98870.59
2022-11-16T20:57:32.073Z,98867.16
2022-11-16T21:02:53.269Z,98875.69
2022-11-16T21:08:14.467Z,98885.06
2022-11-16T21:13:54.085Z,98872.19
2022-11-16T21:19:16.044Z,98867.97
2022-11-16T21:24:37.350Z,98869.66
2022-11-16T21:29:58.655Z,98857.75
2022-11-16T21:35:21.144Z,98847.47
2022-11-16T21:40:42.366Z,98846.59
2022-11-16T21:46:08.659Z,98857.72
2022-11-16T21:51:31.040Z,98865.41
2022-11-16T21:56:52.241Z,98873.03
2022-11-16T22:02:14.915Z,98871.31
2022-11-16T22:07:38.788Z,98876.44
2022-11-16T22:13:00.025Z,98847.41
2022-11-16T22:18:21.758Z,98829.47
2022-11-16T22:23:43.343Z,98830.31
2022-11-16T22:29:04.794Z,98817.50
2022-11-16T22:34:26.389Z,98820.03
2022-11-16T22:39:47.790Z,98819.19
2022-11-16T22:45:09.935Z,98808.09
2022-11-16T22:50:31.153Z,98811.50
2022-11-16T22:55:52.497Z,98819.19
2022-11-16T23:01:13.976Z,98809.81
2022-11-16T23:06:35.548Z,98808.09
2022-11-16T23:12:15.716Z,98809.78
2022-11-16T23:17:37.203Z,98794.41
2022-11-16T23:23:17.093Z,98800.41
2022-11-16T23:28:39.092Z,98802.13
2022-11-16T23:34:00.352Z,98804.69
2022-11-16T23:39:21.583Z,98808.97
2022-11-16T23:44:43.032Z,98806.41
2022-11-16T23:50:04.752Z,98797.84
2022-11-16T23:55:26.870Z,98786.72
